Flight Track Log - Related Links

Times and Time Zones

All times are in EDT time to prevent confusion due to time zone crossing. See the TAM3711 flight status page for this flight to view local times or setup timezone preferences in your user account.

Time Position Orientation Groundspeed Altitude Reporting Facility
EDT Latitude Longitude Course Direction KTS MPH feet Rate Location/Type
Thu 06:59:00 AM -17.9801 -47.5816 172° South  Level Estimated
Thu 07:00:00 AM -18.0809 -47.5656 171° South  Level Estimated
Thu 07:01:00 AM -18.1817 -47.5496 171° South  Level Estimated
Thu 07:02:00 AM -18.2825 -47.5336 171° South  Level Estimated
Thu 07:03:00 AM -18.3834 -47.5176 171° South  Level Estimated
Thu 07:04:00 AM -18.4842 -47.5016 171° South  Level Estimated
Thu 07:05:00 AM -18.5850 -47.4856 171° South  Level Estimated
Thu 07:06:00 AM -18.6858 -47.4695 171° South  Level Estimated
Thu 07:07:00 AM -18.7866 -47.4534 171° South  Level Estimated
Thu 07:08:00 AM -18.8874 -47.4373 171° South  Level Estimated
Thu 07:09:00 AM -18.9882 -47.4212 171° South  Level Estimated
Thu 07:10:00 AM -19.0890 -47.4050 171° South  Level Estimated
Thu 07:11:00 AM -19.1898 -47.3888 171° South  Level Estimated
Thu 07:12:00 AM -19.2906 -47.3727 171° South  Level Estimated
Thu 07:13:00 AM -19.3914 -47.3564 171° South  Level Estimated
Thu 07:14:00 AM -19.4922 -47.3402 171° South  Level Estimated
Thu 07:15:00 AM -19.5930 -47.3240 171° South  Level Estimated
Thu 07:16:00 AM -19.6938 -47.3077 171° South  Level Estimated
Thu 07:17:00 AM -19.7946 -47.2914 171° South  Level Estimated
Thu 07:18:00 AM -19.8954 -47.2751 171° South  Level Estimated
Thu 07:19:00 AM -19.9962 -47.2588 171° South  Level Estimated
Thu 07:20:00 AM -20.0970 -47.2424 171° South  Level Estimated
Thu 07:21:00 AM -20.1978 -47.2260 171° South  Level Estimated
Thu 07:22:00 AM -20.2986 -47.2096 171° South  Level Estimated
Thu 07:23:00 AM -20.3994 -47.1932 171° South  Level Estimated
Thu 07:24:00 AM -20.5002 -47.1768 171° South  Level Estimated
Thu 07:25:00 AM -20.6009 -47.1604 171° South  Level Estimated
Thu 07:26:00 AM -20.7017 -47.1439 171° South  Level Estimated
Thu 07:27:00 AM -20.8025 -47.1274 171° South  Level Estimated
Thu 07:28:00 AM -20.9033 -47.1109 171° South  Level Estimated
Thu 07:29:00 AM -21.0041 -47.0943 171° South  Level Estimated
Thu 07:30:00 AM -21.1048 -47.0777 171° South  Level Estimated
Thu 07:31:00 AM -21.2056 -47.0611 171° South  Level Estimated
Thu 07:32:00 AM -21.3064 -47.0445 171° South  Level Estimated
Thu 07:33:00 AM -21.4072 -47.0279 171° South  Level Estimated
Thu 07:34:00 AM -21.5079 -47.0112 171° South  Level Estimated
Thu 07:35:00 AM -21.6087 -46.9946 171° South  Level Estimated
Thu 07:36:00 AM -21.7095 -46.9779 171° South  Level Estimated
Thu 07:37:00 AM -21.8102 -46.9611 171° South  Level Estimated
Thu 07:38:00 AM -21.9110 -46.9444 171° South  Level Estimated
Thu 07:39:00 AM -22.0117 -46.9276 171° South  Level Estimated
Thu 07:40:00 AM -22.1125 -46.9108 171° South  Level Estimated
Thu 07:41:00 AM -22.2133 -46.8940 171° South  Level Estimated
Thu 07:42:00 AM -22.3140 -46.8772 171° South  Level Estimated
Thu 07:43:00 AM -22.4148 -46.8603 171° South  Level Estimated
Thu 07:44:00 AM -22.5155 -46.8434 171° South  Level Estimated
Thu 07:45:00 AM -22.6163 -46.8265 171° South  Level Estimated
Thu 07:46:00 AM -22.7170 -46.8095 171° South  Level Estimated
Thu 07:47:00 AM -22.8178 -46.7926 171° South  Level Estimated
Thu 07:48:00 AM -22.9185 -46.7756 171° South  Level Estimated
Thu 07:49:00 AM -23.0193 -46.7585 171° South  Level Estimated
Thu 07:50:00 AM -23.1200 -46.7415 171° South  Level Estimated
Thu 07:51:00 AM -23.2207 -46.7244 171° South  Level Estimated
Thu 07:52:00 AM -23.3215 -46.7073 171° South  Level Estimated
Thu 07:53:00 AM -23.4222 -46.6902 171° South  Level Estimated
Thu 07:54:00 AM -23.5229 -46.6731 171° South  Level Estimated
Thu 07:55:00 AM -23.6237 -46.6559 171° South  Level Estimated
Thu 07:56:00 AM -23.6267 -46.6554 171° South  Level Estimated
Thu 07:57:00 AM -23.6267 -46.6554 114° Southeast  Level Estimated
Thu 07:58:00 AM -23.6267 -46.6554 114° Southeast  Level Estimated
Thu 07:59:00 AM -23.6267 -46.6554 114° Southeast  Level Estimated
Thu 08:00:00 AM -23.6267 -46.6554 114° Southeast  Level Estimated
Thu 08:01:00 AM -23.6267 -46.6554 114° Southeast  Level Estimated
Thu 08:02:00 AM -23.6267 -46.6554 114° Southeast  Level Estimated
Thu 08:03:00 AM -23.6267 -46.6554 114° Southeast  Level Estimated
Thu 08:04:00 AM -23.6267 -46.6554 114° Southeast  Level Estimated
Thu 08:05:00 AM -23.6267 -46.6554 114° Southeast  Level Estimated
Thu 08:06:00 AM -23.6267 -46.6554 114° Southeast  Level Estimated
Thu 08:07:00 AM -23.6267 -46.6554 114° Southeast  Level Estimated
Thu 08:08:00 AM -23.6267 -46.6554 114° Southeast  Level Estimated
Thu 08:09:00 AM -23.6267 -46.6554 114° Southeast  Level Estimated
Thu 08:10:00 AM -23.6267 -46.6554 114° Southeast  Level Estimated
Thu 08:11:00 AM -23.6267 -46.6554 114° Southeast  Level Estimated

Login

Don't have an account? Register now (free) for customized features, flight alerts, and more!